Latest Coastal Weather Observations for Browse Island

IDW60701

Issued at 10:43 am WST Tuesday 6 December 2016 (issued every 10 minutes, with the page automatically refreshed every 10 minutes)

About coastal observations | Map of coastal stations | Coastal observations for WA | Marine services | Other Formats
Station Details ID: 200784 Name: BROWSE ISLAND Lat: -14.11 Lon: 123.55 Height: 3.7 m
Data from the previous 72 hours. | See also: Recent months at Browse Island
Date/Time
WST
Temp
°C
Wind Pressure Rain since
9am
mm
Weather Cloud Vis
km
Sea
Height
m
Swell
Dir  Spd
kts
Gust
kts
hPa Trend Height
m
Period
s
Dir
06/10:30am 30.0 E 10 11 1009.0 - - - - - - - - -
06/10:00am 31.2 E 10 - 1009.5 - - - - - - - - -
06/09:30am 31.0 E 10 - 1010.0 - - - - - - - - -
06/09:00am 30.9 E 9 - 1010.3 - - - - - - - - -
06/08:30am 31.0 E 8 - 1010.0 - - - - - - - - -
06/08:00am 29.9 ENE 7 8 1010.6 - - - - - - - - -
06/07:30am 30.0 E 7 - 1010.0 - - - - - - - - -
06/07:00am 30.0 ENE 7 - 1010.0 - - - - - - - - -
06/06:30am 30.0 E 7 - 1009.0 - - - - - - - - -
06/06:00am 29.8 E 6 - 1009.1 - - - - - - - - -
06/05:30am 29.0 E 5 - 1008.0 - - - - - - - - -
06/05:00am 29.1 E 5 - 1008.5 - - - - - - - - -
06/04:30am 29.0 E 5 - 1008.0 - - - - - - - - -
06/04:00am 28.9 ESE 6 7 1008.2 - - - - - - - - -
06/03:30am 29.0 ESE 6 - 1008.0 - - - - - - - - -
06/03:00am 29.0 E 7 - 1007.8 - - - - - - - - -
06/02:30am 29.0 E 7 - 1007.0 - - - - - - - - -
06/02:00am 28.9 E 8 - 1007.7 - - - - - - - - -
06/01:30am 29.0 E 8 - 1008.0 - - - - - - - - -
06/01:00am 28.9 E 7 - 1008.3 - - - - - - - - -
06/12:30am 29.0 E 5 - 1008.0 - - - - - - - - -
06/12:00am 28.9 ESE 6 - 1008.7 - - - - - - - - -
 
Date/Time
WST
Temp
°C
Wind Pressure Rain since
9am
mm
Weather Cloud Vis
km
Sea
Height
m
Swell
Dir  Spd
kts
Gust
kts
hPa Trend Height
m
Period
s
Dir
05/11:30pm 29.0 ESE 5 - 1009.0 - - - - - - - - -
05/11:00pm 28.9 SE 4 - 1009.4 - - - - - - - - -
05/10:30pm 29.0 SE 5 - 1009.0 - - - - - - - - -
05/10:00pm 28.8 SSE 5 - 1009.7 - - - - - - - - -
05/09:30pm 29.0 ESE 4 - 1010.0 - - - - - - - - -
05/09:00pm 28.9 ESE 6 - 1009.8 - - - - - - - - -
05/08:30pm 29.0 ESE 5 - 1009.0 - - - - - - - - -
05/08:00pm 28.8 ESE 5 - 1009.3 - - - - - - - - -
05/07:30pm 29.0 ESE 7 - 1009.0 - - - - - - - - -
05/07:00pm 28.6 ESE 8 - 1008.6 - - - - - - - - -
05/06:30pm 29.0 SE 8 - 1008.0 - - - - - - - - -
05/06:00pm 28.9 SE 7 - 1008.3 - - - - - - - - -
05/05:30pm 29.0 SE 6 - 1008.0 - - - - - - - - -
05/05:00pm 29.1 SSE 7 - 1007.8 - - - - - - - - -
05/04:30pm 29.0 SSE 7 - 1007.0 - - - - - - - - -
05/04:00pm 28.8 S 7 - 1007.2 - - - - - - - - -
05/03:30pm 29.0 SSE 8 - 1007.0 - - - - - - - - -
05/03:00pm 28.8 SSE 8 10 1006.9 - - - - - - - - -
05/02:30pm 29.0 SSE 8 - 1007.0 - - - - - - - - -
05/02:00pm 28.8 SSE 7 - 1007.5 - - - - - - - - -
05/01:30pm 29.0 SSE 5 - 1007.0 - - - - - - - - -
05/01:00pm 28.8 S 5 7 1007.9 - - - - - - - - -
05/12:30pm 29.0 S 5 - 1008.0 - - - - - - - - -
05/12:00pm 28.4 SSW 5 - 1008.7 - - - - - - - - -
05/11:30am 28.0 SSW 4 - 1009.0 - - - - - - - - -
05/11:00am 28.0 SSW 3 - 1009.3 - - - - - - - - -
05/10:30am 27.8 CALM 0 0 1009.5 - - - - - - - - -
05/10:00am 28.0 CALM 0 - 1010.0 - - - - - - - - -
05/09:30am 28.0 WNW 1 - 1010.0 - - - - - - - - -
05/09:00am 27.1 NW 3 - 1010.4 - - - - - - - - -
05/08:30am 27.0 NNW 5 - 1010.0 - - - - - - - - -
05/08:00am 26.8 NNW 7 8 1010.3 - - - - - - - - -
05/07:30am 27.0 N 9 - 1010.0 - - - - - - - - -
05/07:00am 26.7 N 8 - 1009.8 - - - - - - - - -
05/06:30am 27.0 N 6 - 1009.0 - - - - - - - - -
05/06:00am 27.2 NNE 7 - 1009.3 - - - - - - - - -
05/05:30am 27.0 N 10 - 1009.0 - - - - - - - - -
05/05:00am 26.8 NNE 16 - 1009.2 - - - - - - - - -
05/04:30am 27.0 N 18 - 1008.0 - - - - - - - - -
05/04:28am 27.0 N 18 - 1008.0 - - - - - - - - -
05/04:00am 28.6 CALM 0 0 1008.2 - - - - - - - - -
05/03:30am 29.0 CALM 0 - 1007.0 - - - - - - - - -
05/03:00am 28.3 CALM 0 - 1007.7 - - - - - - - - -
05/02:30am 28.1 CALM 0 3 1007.6 - - - - - - - - -
05/02:00am 27.7 NW 5 8 1007.7 - - - - - - - - -
05/01:30am 28.0 NW 5 - 1008.0 - - - - - - - - -
05/01:00am 26.9 NNW 7 - 1008.0 - - - - - - - - -
05/12:30am 27.0 NNW 18 - 1008.0 - - - - - - - - -
05/12:18am 27.0 N 15 - 1008.0 - - - - - - - - -
05/12:00am 29.0 NNE 4 - 1008.8 - - - - - - - - -
 
Date/Time
WST
Temp
°C
Wind Pressure Rain since
9am
mm
Weather Cloud Vis
km
Sea
Height
m
Swell
Dir  Spd
kts
Gust
kts
hPa Trend Height
m
Period
s
Dir
04/11:30pm 29.0 E 4 - 1009.0 - - - - - - - - -
04/11:00pm 29.0 E 6 - 1009.1 - - - - - - - - -
04/10:30pm 29.0 E 6 - 1009.0 - - - - - - - - -
04/10:00pm 29.0 ESE 6 - 1009.3 - - - - - - - - -
04/09:30pm 29.0 ESE 6 - 1009.0 - - - - - - - - -
04/09:00pm 28.8 E 7 8 1009.4 - - - - - - - - -
04/08:30pm 29.0 E 7 - 1009.0 - - - - - - - - -
04/08:00pm 28.7 ESE 6 - 1009.3 - - - - - - - - -
04/07:30pm 29.0 SE 6 - 1009.0 - - - - - - - - -
04/07:00pm 28.6 SSE 7 9 1008.9 - - - - - - - - -
04/06:30pm 28.0 ESE 7 - 1008.0 - - - - - - - - -
04/06:00pm 28.5 SSE 6 - 1007.8 - - - - - - - - -
04/05:30pm 28.0 SSE 7 - 1007.0 - - - - - - - - -
04/05:00pm 28.1 SSE 10 11 1007.1 - - - - - - - - -
04/04:30pm 28.0 SSE 9 - 1007.0 - - - - - - - - -
04/04:00pm 27.9 SSE 9 - 1006.9 - - - - - - - - -
04/03:30pm 27.0 S 10 - 1006.0 - - - - - - - - -
04/03:00pm 27.4 SSE 11 13 1007.1 - - - - - - - - -
04/02:30pm 27.0 SSE 10 - 1007.0 - - - - - - - - -
04/02:00pm 26.6 S 8 9 1008.0 - - - - - - - - -
04/01:30pm 26.0 S 6 - 1008.0 - - - - - - - - -
04/01:00pm 25.3 SE 2 - 1008.7 - - - - - - - - -
04/12:30pm 25.0 CALM 0 - 1009.0 - - - - - - - - -
04/12:00pm 24.7 ENE 6 7 1009.2 - - - - - - - - -
04/11:30am 24.0 ENE 20 - 1009.0 - - - - - - - - -
04/11:10am 25.0 ENE 23 33 1009.0 - - - - - - - - -
04/11:06am 26.0 E 19 - 1010.0 - - - - - - - - -
04/11:00am 27.3 S 7 - 1009.2 - - - - - - - - -
04/10:30am 27.0 S 11 - 1009.0 - - - - - - - - -
04/10:00am 24.7 SE 19 - 1009.2 - - - - - - - - -
04/09:44am 28.0 E 15 - 1009.0 - - - - - - - - -
04/09:30am 30.0 WNW 4 - 1009.0 - - - - - - - - -
04/09:00am 30.7 SW 2 - 1009.5 - - - - - - - - -
04/08:30am 31.0 S 4 - 1009.0 - - - - - - - - -
04/08:00am 30.1 SSW 1 - 1009.5 - - - - - - - - -
04/07:30am 29.0 SSW 3 - 1009.0 - - - - - - - - -
04/07:00am 28.9 SSW 4 - 1009.1 - - - - - - - - -
04/06:30am 28.9 SSW 5 6 1009.1 - - - - - - - - -
04/06:00am 28.7 SSW 6 7 1008.9 - - - - - - - - -
04/05:30am 29.0 SW 5 - 1008.0 - - - - - - - - -
04/05:00am 28.7 SW 5 - 1008.1 - - - - - - - - -
04/04:30am 29.0 SW 7 - 1007.0 - - - - - - - - -
04/04:00am 28.4 SSW 6 7 1007.4 - - - - - - - - -
04/03:30am 28.0 SW 5 7 1007.0 - - - - - - - - -
04/03:00am 28.0 WSW 7 8 1007.0 - - - - - - - - -
04/02:30am 28.0 W 7 - 1007.0 - - - - - - - - -
04/02:00am 28.1 WNW 11 14 1007.6 - - - - - - - - -
04/01:30am 28.0 WNW 13 - 1008.0 - - - - - - - - -
04/01:00am 28.0 NW 14 17 1008.7 - - - - - - - - -
04/12:30am 28.0 NW 17 19 1008.0 - - - - - - - - -
04/12:00am 28.8 NW 14 20 1009.2 - - - - - - - - -
 
Date/Time
WST
Temp
°C
Wind Pressure Rain since
9am
mm
Weather Cloud Vis
km
Sea
Height
m
Swell
Dir  Spd
kts
Gust
kts
hPa Trend Height
m
Period
s
Dir
03/11:30pm 30.0 N 9 - 1009.0 - - - - - - - - -
03/11:00pm 30.0 N 8 10 1010.0 - - - - - - - - -
03/10:30pm 30.0 N 6 8 1010.3 - - - - - - - - -
03/10:00pm 29.9 N 5 6 1010.5 - - - - - - - - -
03/09:30pm 30.0 N 4 - 1010.0 - - - - - - - - -
03/09:00pm 29.9 NNE 4 5 1010.5 - - - - - - - - -
03/08:30pm 29.7 NNE 4 5 1009.8 - - - - - - - - -
03/08:00pm 29.7 ENE 4 - 1009.6 - - - - - - - - -
03/07:30pm 30.0 CALM 0 - 1009.0 - - - - - - - - -
03/07:00pm 29.7 CALM 0 0 1009.0 - - - - - - - - -
03/06:30pm 30.0 CALM 0 - 1008.0 - - - - - - - - -
03/06:00pm 30.0 CALM 0 0 1008.3 - - - - - - - - -
03/05:30pm 30.0 SE 4 - 1008.0 - - - - - - - - -
03/05:00pm 30.4 S 4 4 1007.9 - - - - - - - - -
03/04:30pm 30.0 S 4 - 1007.0 - - - - - - - - -
03/04:00pm 30.4 S 5 7 1007.5 - - - - - - - - -
03/03:30pm 30.0 SSE 6 - 1007.0 - - - - - - - - -
03/03:00pm 29.6 SSE 7 8 1007.4 - - - - - - - - -
03/02:30pm 29.6 SSE 7 9 1007.2 - - - - - - - - -
03/02:00pm 29.4 S 6 8 1007.3 - - - - - - - - -
03/01:30pm 30.0 SSE 6 - 1007.0 - - - - - - - - -
03/01:00pm 28.8 S 9 11 1007.7 - - - - - - - - -
03/12:30pm 29.0 SSE 8 10 1008.0 - - - - - - - - -
03/12:00pm 29.1 SSE 9 11 1009.2 - - - - - - - - -
03/11:30am 29.0 S 10 - 1009.0 - - - - - - - - -
03/11:00am 28.0 S 13 14 1010.0 - - - - - - - - -

Other Formats:

Comma delimited format used in spreadsheet applications
http://www.bom.gov.au/fwo/IDW60701/IDW60701.94103.axf

JavaScript Object Notation format (JSON) in row-major order
http://www.bom.gov.au/fwo/IDW60701/IDW60701.94103.json